Time;durP1;ratioP1;P1;durP2;ratioP2;P2;SDS_P1;SDS_P2;PMS_P1;PMS_P2;Temp;Humidity;BMP_temperature;BMP_pressure;BME280_temperature;BME280_humidity;BME280_pressure;Samples;Min_cycle;Max_cycle;Signal;HPM_P1;HPM_P2
2022/08/01 00:01:34;;;;;;;13.13;12.15;;;;;;;19.14;60.58;99950.56;4915958;28;97380;-80
2022/08/01 00:04:00;;;;;;;13.55;12.55;;;;;;;19.17;60.46;99958.31;4899557;28;96644;-80
2022/08/01 00:06:25;;;;;;;13.75;12.85;;;;;;;19.12;60.76;99955.13;4915048;28;96797;-80
2022/08/01 00:08:51;;;;;;;13.38;12.40;;;;;;;19.17;60.46;99950.31;4897751;28;101485;-81
2022/08/01 00:11:16;;;;;;;13.77;12.68;;;;;;;19.22;60.20;99960.59;4897867;28;99705;-81
2022/08/01 00:13:42;;;;;;;13.63;12.63;;;;;;;18.94;60.43;99940.56;4903284;28;96849;-81
2022/08/01 00:16:07;;;;;;;13.13;12.32;;;;;;;18.89;60.77;99943.56;4894180;28;96715;-83
2022/08/01 00:18:34;;;;;;;13.60;12.70;;;;;;;18.80;61.23;99948.72;4911989;28;97266;-81
2022/08/01 00:20:59;;;;;;;13.85;13.00;;;;;;;18.69;60.94;99925.53;4896893;28;99874;-81
2022/08/01 00:23:25;;;;;;;13.10;12.30;;;;;;;18.81;60.88;99951.25;4895332;28;97079;-80
2022/08/01 00:25:50;;;;;;;13.90;12.90;;;;;;;18.69;61.26;99952.97;4898190;28;97276;-81
2022/08/01 00:28:16;;;;;;;14.95;12.48;;;;;;;18.62;61.17;99954.41;4898252;28;97467;-80
2022/08/01 00:30:41;;;;;;;13.73;12.82;;;;;;;18.50;61.80;99949.97;4915212;28;97391;-80
2022/08/01 00:33:07;;;;;;;13.73;12.82;;;;;;;18.36;61.65;99920.91;4898532;28;97214;-81
2022/08/01 00:35:32;;;;;;;14.00;13.02;;;;;;;18.50;61.76;99947.31;4915722;28;97045;-80
2022/08/01 00:37:58;;;;;;;13.32;12.40;;;;;;;18.50;62.04;99945.50;4897475;28;97567;-80
2022/08/01 00:40:23;;;;;;;13.63;12.73;;;;;;;18.50;61.88;99940.19;4878439;28;101529;-82
2022/08/01 00:42:49;;;;;;;13.05;12.15;;;;;;;18.52;61.72;99942.72;4913259;28;96827;-80
2022/08/01 00:45:14;;;;;;;13.60;12.70;;;;;;;18.63;61.50;99950.78;4882931;28;96978;-80
2022/08/01 00:47:40;;;;;;;13.43;12.63;;;;;;;18.67;61.76;99943.41;4882302;28;101425;-80
2022/08/01 00:50:05;;;;;;;14.07;13.05;;;;;;;18.68;61.87;99942.47;4898545;28;101227;-82
2022/08/01 00:52:32;;;;;;;12.60;11.77;;;;;;;18.69;61.17;99917.56;4914486;28;97193;-80
2022/08/01 00:54:57;;;;;;;13.20;12.40;;;;;;;18.75;61.33;99933.94;4895718;28;97381;-82
2022/08/01 00:57:23;;;;;;;13.45;12.55;;;;;;;18.61;61.82;99922.59;4911307;28;101287;-80
2022/08/01 00:59:49;;;;;;;14.57;13.48;;;;;;;18.71;61.54;99936.94;4882104;28;101281;-81
2022/08/01 01:02:14;;;;;;;13.60;12.73;;;;;;;18.66;61.92;99933.75;4898286;28;96681;-81
2022/08/01 01:04:40;;;;;;;13.65;12.85;;;;;;;18.61;62.33;99931.41;4914757;28;96692;-82
2022/08/01 01:07:24;;;;;;;12.95;12.05;;;;;;;18.59;62.49;99943.13;4881879;28;101680;-80
2022/08/01 01:09:52;;;;;;;13.52;12.55;;;;;;;18.68;62.18;99937.16;4897773;28;101690;-82
2022/08/01 01:12:36;;;;;;;12.98;12.20;;;;;;;18.65;62.48;99940.88;4893268;28;100411;-82
2022/08/01 01:15:04;;;;;;;13.15;12.35;;;;;;;18.49;62.42;99922.53;4889304;28;97493;-80
2022/08/01 01:17:39;;;;;;;12.95;12.15;;;;;;;18.58;62.80;99933.47;4893887;28;101068;-80
2022/08/01 01:20:06;;;;;;;13.48;12.57;;;;;;;18.53;62.82;99924.03;4914438;28;97545;-83
2022/08/01 01:22:38;;;;;;;13.52;12.65;;;;;;;18.63;62.44;99934.81;4897683;28;97308;-79
2022/08/01 01:25:22;;;;;;;14.02;12.95;;;;;;;18.49;63.02;99913.72;4913596;28;97061;-82
2022/08/01 01:28:10;;;;;;;14.25;13.15;;;;;;;18.69;62.30;99934.38;4912716;28;98770;-80
2022/08/01 01:30:37;;;;;;;13.75;12.75;;;;;;;18.58;62.18;99906.88;4881786;28;100501;-83
2022/08/01 01:33:06;;;;;;;13.75;12.80;;;;;;;18.58;62.33;99918.34;4881756;28;96872;-83
2022/08/01 01:35:34;;;;;;;12.95;12.15;;;;;;;18.45;62.74;99914.91;4913704;28;97377;-82
2022/08/01 01:38:09;;;;;;;13.27;12.48;;;;;;;18.53;62.27;99905.44;4880691;28;100923;-80
2022/08/01 01:40:36;;;;;;;13.30;12.40;;;;;;;18.52;62.50;99908.19;4882167;28;100935;-83
2022/08/01 01:43:01;;;;;;;13.95;12.90;;;;;;;18.45;63.11;99909.59;4900292;28;97564;-83
2022/08/01 01:45:28;;;;;;;14.15;13.05;;;;;;;18.44;62.83;99910.53;4913896;28;96881;-82
2022/08/01 01:47:54;;;;;;;13.30;12.27;;;;;;;18.55;62.65;99914.09;4912617;28;98264;-80
2022/08/01 01:50:21;;;;;;;13.38;12.38;;;;;;;18.48;62.31;99915.53;4897203;28;97452;-80
2022/08/01 01:52:47;;;;;;;12.88;11.77;;;;;;;18.16;62.47;99886.00;4896887;28;97234;-79
2022/08/01 01:55:13;;;;;;;12.75;11.95;;;;;;;18.26;63.09;99913.59;4898074;28;98617;-82
2022/08/01 01:57:41;;;;;;;13.57;12.57;;;;;;;18.28;63.33;99919.63;4880399;28;101616;-80
2022/08/01 02:00:08;;;;;;;13.23;12.18;;;;;;;18.17;62.95;99892.16;4896452;28;98201;-81
2022/08/01 02:02:36;;;;;;;13.88;12.70;;;;;;;18.34;63.15;99907.72;4898045;28;97254;-82
2022/08/01 02:05:01;;;;;;;16.25;12.23;;;;;;;18.49;63.11;99905.75;4914034;28;96803;-79
2022/08/01 02:07:27;;;;;;;13.30;12.30;;;;;;;18.44;62.60;99889.28;4897142;28;98526;-82
2022/08/01 02:09:54;;;;;;;13.95;12.75;;;;;;;18.55;62.60;99907.94;4881170;28;101155;-83
2022/08/01 02:12:21;;;;;;;12.90;12.10;;;;;;;18.42;62.68;99904.50;4876605;28;96737;-82
2022/08/01 02:14:48;;;;;;;13.40;12.32;;;;;;;18.38;62.85;99911.84;4909563;28;97440;-82
2022/08/01 02:17:16;;;;;;;14.50;13.27;;;;;;;18.12;62.92;99894.28;4880806;28;101000;-81
2022/08/01 02:19:42;;;;;;;14.02;13.07;;;;;;;18.19;63.14;99916.81;4878925;28;101204;-81
2022/08/01 02:22:10;;;;;;;14.27;13.27;;;;;;;18.05;64.00;99921.28;4879945;28;97429;-82
2022/08/01 02:24:56;;;;;;;13.45;12.50;;;;;;;18.19;63.51;99917.66;4896703;28;97276;-82
2022/08/01 02:27:30;;;;;;;13.32;12.32;;;;;;;18.13;63.29;99909.28;4899041;28;100603;-82
2022/08/01 02:29:59;;;;;;;13.77;12.57;;;;;;;18.14;63.32;99916.28;4880839;28;101604;-81
2022/08/01 02:32:46;;;;;;;13.45;12.50;;;;;;;18.26;62.80;99913.59;4899845;28;96886;-81
2022/08/01 02:35:14;;;;;;;13.93;12.75;;;;;;;18.19;62.79;99911.50;4912676;28;96775;-82
2022/08/01 02:37:41;;;;;;;12.88;12.05;;;;;;;18.12;62.93;99900.44;4880118;28;101101;-83
2022/08/01 02:40:08;;;;;;;14.45;13.10;;;;;;;18.25;62.70;99897.78;4896699;28;97409;-82
2022/08/01 02:42:34;;;;;;;13.85;12.93;;;;;;;18.14;62.79;99895.88;4896772;28;97236;-82
2022/08/01 02:45:02;;;;;;;14.55;13.32;;;;;;;18.21;63.53;99906.91;4892882;28;97680;-81
2022/08/01 02:47:28;;;;;;;12.80;11.93;;;;;;;18.08;63.89;99904.28;4880300;28;101178;-82
2022/08/01 02:49:55;;;;;;;13.82;12.93;;;;;;;18.07;63.81;99905.25;4881083;28;101547;-82
2022/08/01 02:52:21;;;;;;;13.43;12.55;;;;;;;18.03;63.86;99893.97;4880508;28;96840;-82
2022/08/01 02:54:49;;;;;;;14.00;12.85;;;;;;;18.01;63.40;99897.75;4897503;28;98555;-82
2022/08/01 02:57:16;;;;;;;14.07;12.90;;;;;;;18.02;63.09;99878.19;4896033;28;97674;-82
2022/08/01 02:59:42;;;;;;;13.98;13.07;;;;;;;18.02;63.57;99900.25;4895196;28;97740;-82
2022/08/01 03:02:09;;;;;;;14.88;13.57;;;;;;;17.89;63.99;99891.50;4895508;28;96941;-82
2022/08/01 03:04:37;;;;;;;14.05;12.93;;;;;;;18.02;63.64;99904.75;4913041;28;97050;-82
2022/08/01 03:07:04;;;;;;;15.00;13.52;;;;;;;18.00;63.36;99880.94;4912544;28;97484;-82
2022/08/01 03:09:32;;;;;;;15.57;14.32;;;;;;;18.05;63.60;99904.50;4896003;28;101096;-82
2022/08/01 03:12:00;;;;;;;14.40;13.10;;;;;;;17.89;64.00;99896.81;4912245;28;97169;-82
2022/08/01 03:14:27;;;;;;;14.70;13.65;;;;;;;17.94;63.83;99901.78;4911876;28;97881;-83
2022/08/01 03:16:54;;;;;;;14.23;13.02;;;;;;;17.97;63.58;99902.41;4891731;28;101602;-83
2022/08/01 03:19:20;;;;;;;14.60;13.35;;;;;;;17.85;63.64;99879.38;4894590;28;98092;-82
2022/08/01 03:21:47;;;;;;;14.05;12.93;;;;;;;18.12;63.03;99913.72;4912465;28;96877;-82
2022/08/01 03:24:13;;;;;;;14.60;13.50;;;;;;;18.05;62.58;99884.13;4879853;28;97051;-82
2022/08/01 03:26:39;;;;;;;14.63;13.15;;;;;;;18.08;63.28;99906.94;4889133;28;101269;-82
2022/08/01 03:29:09;;;;;;;15.38;13.90;;;;;;;18.14;63.01;99901.19;4881716;28;101092;-81
2022/08/01 03:31:36;;;;;;;14.27;13.27;;;;;;;18.17;63.17;99905.44;4899629;28;97242;-83
2022/08/01 03:34:02;;;;;;;14.30;13.25;;;;;;;18.07;63.81;99900.78;4894276;28;100140;-82
2022/08/01 03:36:28;;;;;;;13.98;12.88;;;;;;;17.99;63.80;99895.19;4899788;28;101869;-82
2022/08/01 03:38:57;;;;;;;14.25;13.00;;;;;;;18.18;63.27;99905.34;4898354;28;100478;-81
2022/08/01 03:41:25;;;;;;;14.13;13.13;;;;;;;17.98;63.66;99887.34;4883194;28;97333;-82
2022/08/01 03:44:13;;;;;;;14.60;13.70;;;;;;;18.10;63.76;99902.38;4895722;28;96909;-82
2022/08/01 03:46:47;;;;;;;15.73;14.23;;;;;;;18.08;63.48;99878.56;4909275;28;100680;-82
2022/08/01 03:49:27;;;;;;;15.40;14.13;;;;;;;18.05;64.07;99905.34;4913138;28;100915;-82
2022/08/01 03:51:53;;;;;;;15.48;14.25;;;;;;;17.95;63.65;99882.22;4899058;28;98094;-82
2022/08/01 03:54:24;;;;;;;16.40;15.10;;;;;;;18.29;63.41;99918.66;4902045;28;97514;-82
2022/08/01 03:56:51;;;;;;;;;;;;;;;18.16;63.61;99914.38;4899174;28;101891;-82
2022/08/01 03:59:17;;;;;;;16.25;14.77;;;;;;;18.31;63.21;99918.56;4898677;28;100776;-81
2022/08/01 04:01:44;;;;;;;16.10;14.68;;;;;;;18.35;63.18;99921.84;4881821;28;96770;-81
2022/08/01 04:04:09;;;;;;;15.20;14.20;;;;;;;18.23;63.24;99929.75;4914638;28;97399;-82
2022/08/01 04:06:38;;;;;;;16.55;15.20;;;;;;;18.27;63.36;99933.91;4915645;28;97407;-82
2022/08/01 04:09:03;;;;;;;15.60;14.38;;;;;;;18.18;63.17;99910.66;4915064;28;97391;-81
2022/08/01 04:11:29;;;;;;;16.17;14.95;;;;;;;18.18;63.74;99913.31;4882987;28;96870;-82
2022/08/01 04:13:55;;;;;;;16.05;14.85;;;;;;;18.17;64.06;99927.53;4903376;28;96907;-82
2022/08/01 04:16:21;;;;;;;15.38;14.25;;;;;;;18.25;63.70;99921.69;4882184;28;100994;-81
2022/08/01 04:18:47;;;;;;;15.63;14.48;;;;;;;18.14;63.84;99901.19;4899005;28;100848;-82
2022/08/01 04:21:13;;;;;;;16.27;14.35;;;;;;;18.10;63.93;99894.41;4898863;28;97023;-81
2022/08/01 04:23:41;;;;;;;16.05;14.95;;;;;;;18.27;64.16;99920.63;4895271;28;97492;-82
2022/08/01 04:26:07;;;;;;;16.33;14.98;;;;;;;18.27;64.16;99912.66;4912049;28;97593;-82
2022/08/01 04:28:34;;;;;;;15.95;14.60;;;;;;;18.47;63.60;99923.59;4898608;28;98817;-82
2022/08/01 04:31:00;;;;;;;16.55;15.18;;;;;;;18.43;63.72;99920.34;4899464;28;96897;-81
2022/08/01 04:33:27;;;;;;;16.77;15.18;;;;;;;18.30;63.87;99920.38;4883039;28;97415;-81
2022/08/01 04:35:52;;;;;;;16.60;15.30;;;;;;;18.14;64.52;99917.13;4897471;28;101755;-82
2022/08/01 04:38:21;;;;;;;16.60;15.32;;;;;;;18.12;64.43;99913.72;4897152;28;101342;-81
2022/08/01 04:40:48;;;;;;;16.98;15.43;;;;;;;18.24;64.51;99928.81;4914352;28;96795;-81
2022/08/01 04:43:14;;;;;;;17.42;15.70;;;;;;;18.16;64.62;99909.06;4914161;28;96840;-82
2022/08/01 04:45:40;;;;;;;16.77;15.52;;;;;;;18.20;64.73;99926.47;4898484;28;101317;-81
2022/08/01 04:48:06;;;;;;;17.00;15.70;;;;;;;18.19;64.61;99914.16;4911615;28;97810;-81
2022/08/01 04:50:32;;;;;;;17.17;15.55;;;;;;;18.23;64.81;99928.91;4913244;28;96960;-82
2022/08/01 04:52:57;;;;;;;16.65;15.45;;;;;;;18.15;64.55;99900.25;4897415;28;96897;-82
2022/08/01 04:55:23;;;;;;;16.67;15.00;;;;;;;18.37;64.64;99925.25;4913393;28;97583;-82
2022/08/01 04:57:48;;;;;;;17.23;15.85;;;;;;;18.40;64.70;99933.84;4882068;28;101216;-82
2022/08/01 05:00:16;;;;;;;17.08;15.65;;;;;;;18.27;64.58;99901.19;4898102;28;97038;-82
2022/08/01 05:02:41;;;;;;;16.08;14.90;;;;;;;18.36;64.73;99921.75;4896874;28;97271;-82
2022/08/01 05:05:07;;;;;;;16.23;14.93;;;;;;;18.50;64.51;99920.72;4903667;28;100068;-82
2022/08/01 05:07:35;;;;;;;16.38;15.18;;;;;;;18.59;64.49;99930.72;4912678;28;98457;-81
2022/08/01 05:10:03;;;;;;;17.70;15.77;;;;;;;18.58;64.55;99934.31;4898041;28;97272;-83
2022/08/01 05:12:28;;;;;;;16.90;15.52;;;;;;;18.55;65.02;99918.59;4881207;28;96981;-82
2022/08/01 05:14:54;;;;;;;16.88;15.27;;;;;;;18.50;64.87;99918.94;4882483;28;99842;-82
2022/08/01 05:17:20;;;;;;;16.40;15.00;;;;;;;18.46;65.13;99924.56;4897512;28;101707;-82
2022/08/01 05:19:45;;;;;;;16.45;14.90;;;;;;;18.47;65.10;99934.25;4882610;28;96889;-82
2022/08/01 05:22:11;;;;;;;15.75;14.65;;;;;;;18.53;65.06;99933.81;4894443;28;97830;-82
2022/08/01 05:24:40;;;;;;;15.98;14.88;;;;;;;18.62;64.94;99927.81;4912776;28;98183;-82
2022/08/01 05:27:07;;;;;;;16.42;15.02;;;;;;;18.63;64.86;99936.63;4904364;28;99709;-82
2022/08/01 05:29:33;;;;;;;16.83;15.63;;;;;;;18.71;65.00;99931.59;4882011;28;96791;-82
2022/08/01 05:31:59;;;;;;;17.00;15.70;;;;;;;18.57;64.89;99908.69;4907507;28;96973;-82
2022/08/01 05:34:25;;;;;;;16.70;15.10;;;;;;;18.66;65.23;99926.63;4897417;28;97564;-81
2022/08/01 05:36:51;;;;;;;16.38;15.20;;;;;;;18.73;65.13;99927.00;4892698;28;101490;-82
2022/08/01 05:39:16;;;;;;;16.88;15.45;;;;;;;18.64;64.87;99901.94;4880165;28;97266;-82
2022/08/01 05:41:42;;;;;;;17.25;15.48;;;;;;;18.67;65.29;99906.19;4914327;28;96996;-82
2022/08/01 05:44:07;;;;;;;16.33;14.93;;;;;;;18.72;65.63;99920.00;4880261;28;101522;-82
2022/08/01 05:46:33;;;;;;;17.63;16.23;;;;;;;18.74;65.22;99913.66;4892999;28;102965;-83
2022/08/01 05:48:59;;;;;;;20.38;18.88;;;;;;;18.85;65.60;99930.59;4898152;28;98047;-81
2022/08/01 05:51:25;;;;;;;19.15;17.65;;;;;;;18.93;65.17;99931.72;4897997;28;96929;-82
2022/08/01 05:53:52;;;;;;;17.10;15.52;;;;;;;18.99;65.17;99927.75;4894345;28;98460;-82
2022/08/01 05:56:18;;;;;;;16.55;15.25;;;;;;;19.00;65.36;99932.97;4890888;28;98104;-82
2022/08/01 05:58:43;;;;;;;16.90;15.40;;;;;;;18.96;65.11;99918.19;4877722;28;97209;-81
2022/08/01 06:01:09;;;;;;;17.13;15.40;;;;;;;19.04;65.35;99928.25;4904423;28;97426;-82
2022/08/01 06:03:34;;;;;;;18.40;16.77;;;;;;;19.06;65.50;99907.72;4873715;28;100981;-82
2022/08/01 06:06:00;;;;;;;18.15;16.63;;;;;;;19.19;65.59;99918.25;4879861;28;101372;-82
2022/08/01 06:08:26;;;;;;;17.73;16.08;;;;;;;19.27;65.26;99920.34;4879823;28;97239;-82
2022/08/01 06:10:52;;;;;;;17.80;16.10;;;;;;;19.41;65.06;99925.47;4896423;28;96837;-82
2022/08/01 06:13:19;;;;;;;25.10;16.65;;;;;;;19.53;64.85;99924.50;4906211;28;101692;-80
2022/08/01 06:15:45;;;;;;;16.15;14.93;;;;;;;19.61;64.96;99929.25;4906170;28;101337;-82
2022/08/01 06:18:11;;;;;;;17.95;16.02;;;;;;;19.56;64.98;99910.97;4891647;28;96875;-82
2022/08/01 06:20:36;;;;;;;18.65;16.75;;;;;;;19.72;64.88;99920.44;4894049;28;98037;-81
2022/08/01 06:23:01;;;;;;;18.40;16.80;;;;;;;19.83;64.58;99934.59;4910663;28;97176;-82
2022/08/01 06:25:27;;;;;;;17.58;15.95;;;;;;;19.78;64.46;99904.84;4899758;28;101350;-82
2022/08/01 06:27:52;;;;;;;23.38;18.88;;;;;;;20.02;64.17;99922.50;4899307;28;96912;-82
2022/08/01 06:30:18;;;;;;;21.45;19.48;;;;;;;20.15;64.05;99925.03;4879539;28;96991;-83
2022/08/01 06:32:44;;;;;;;17.70;16.33;;;;;;;20.29;64.13;99930.94;4912307;28;97466;-81
2022/08/01 06:35:09;;;;;;;17.33;16.08;;;;;;;20.30;63.94;99913.13;4913089;28;101094;-82
2022/08/01 06:37:35;;;;;;;17.05;15.77;;;;;;;20.46;63.82;99934.06;4893418;28;97254;-82
2022/08/01 06:40:05;;;;;;;20.45;15.40;;;;;;;20.55;64.04;99938.69;4907249;28;97060;-82
2022/08/01 06:42:35;;;;;;;16.38;15.23;;;;;;;20.61;63.90;99932.84;4876163;28;101550;-82
2022/08/01 06:45:04;;;;;;;16.50;15.13;;;;;;;20.71;63.78;99930.25;4912726;28;97291;-83
2022/08/01 06:47:29;;;;;;;16.25;15.05;;;;;;;20.72;63.61;99923.97;4913360;28;97247;-82
2022/08/01 06:49:55;;;;;;;16.35;15.07;;;;;;;20.73;63.15;99907.81;4911704;28;97360;-82
2022/08/01 06:52:20;;;;;;;17.55;16.08;;;;;;;20.91;63.48;99929.44;4891379;28;101392;-82
2022/08/01 06:54:46;;;;;;;14.95;13.90;;;;;;;20.94;63.10;99928.34;4916618;28;100321;-82
2022/08/01 06:57:11;;;;;;;15.20;14.10;;;;;;;20.99;62.89;99932.31;4902693;28;97327;-82
2022/08/01 06:59:37;;;;;;;14.50;13.40;;;;;;;21.06;62.87;99918.47;4915176;28;97500;-82
2022/08/01 07:02:02;;;;;;;15.15;14.00;;;;;;;21.29;62.20;99917.38;4894191;28;101332;-82
2022/08/01 07:04:28;;;;;;;15.13;14.00;;;;;;;21.65;61.34;99921.41;4892927;28;101203;-83
2022/08/01 07:06:53;;;;;;;15.45;14.35;;;;;;;22.01;60.29;99921.84;4879823;28;96793;-80
2022/08/01 07:09:19;;;;;;;14.95;13.85;;;;;;;22.34;59.86;99931.41;4895954;28;98458;-81
2022/08/01 07:11:44;;;;;;;14.95;13.95;;;;;;;22.62;59.12;99936.94;4909119;28;100938;-82
2022/08/01 07:14:10;;;;;;;14.95;14.13;;;;;;;22.86;58.50;99930.34;4896846;28;100376;-80
2022/08/01 07:16:35;;;;;;;16.23;15.15;;;;;;;23.00;58.35;99927.28;4895373;28;99345;-83
2022/08/01 07:19:01;;;;;;;14.68;13.68;;;;;;;23.13;58.29;99940.41;4912078;28;96808;-82
2022/08/01 07:21:26;;;;;;;15.77;14.57;;;;;;;23.21;57.82;99940.50;4913068;28;99161;-82
2022/08/01 07:23:51;;;;;;;15.60;14.50;;;;;;;23.18;58.05;99943.47;4875455;28;101008;-80
2022/08/01 07:26:17;;;;;;;15.98;14.88;;;;;;;23.17;57.75;99939.94;4896145;28;96742;-77
2022/08/01 07:28:42;;;;;;;14.75;13.85;;;;;;;23.26;57.39;99940.94;4896435;28;97241;-78
2022/08/01 07:31:08;;;;;;;16.02;14.82;;;;;;;23.38;57.18;99936.25;4895975;28;100036;-76
2022/08/01 07:33:33;;;;;;;15.50;14.45;;;;;;;23.60;56.74;99943.97;4897391;28;97625;-77
2022/08/01 07:35:59;;;;;;;15.10;14.00;;;;;;;23.73;56.14;99936.47;4879711;28;96933;-76
2022/08/01 07:38:24;;;;;;;14.20;13.32;;;;;;;23.59;56.37;99936.94;4895371;28;97214;-78
2022/08/01 07:40:50;;;;;;;15.20;13.93;;;;;;;23.58;56.07;99939.75;4879023;28;101355;-76
2022/08/01 07:43:15;;;;;;;14.88;13.88;;;;;;;23.69;55.80;99947.59;4894797;28;101094;-76
2022/08/01 07:45:41;;;;;;;14.80;13.68;;;;;;;23.81;55.50;99951.81;4895921;28;96933;-77
2022/08/01 07:48:07;;;;;;;15.20;14.07;;;;;;;23.83;55.32;99931.09;4878405;28;97300;-80
2022/08/01 07:50:33;;;;;;;15.25;14.23;;;;;;;24.49;54.30;99945.31;4893975;28;97859;-80
2022/08/01 07:52:59;;;;;;;15.57;14.40;;;;;;;24.74;53.33;99930.34;4896285;28;97850;-79
2022/08/01 07:55:24;;;;;;;14.68;13.55;;;;;;;24.80;53.30;99945.81;4891052;28;97251;-79
2022/08/01 07:57:50;;;;;;;15.15;13.85;;;;;;;24.76;53.23;99952.50;4905236;28;97148;-79
2022/08/01 08:00:16;;;;;;;14.82;13.73;;;;;;;24.52;53.46;99921.75;4900532;28;100709;-77
2022/08/01 08:02:42;;;;;;;14.52;13.50;;;;;;;25.09;52.80;99953.63;4894606;28;101866;-77
2022/08/01 08:05:07;;;;;;;14.77;13.88;;;;;;;25.10;52.85;99941.03;4896383;28;97342;-77
2022/08/01 08:07:33;;;;;;;14.75;13.65;;;;;;;25.02;52.34;99928.41;4889799;28;97345;-77
2022/08/01 08:09:59;;;;;;;15.25;13.90;;;;;;;25.20;52.23;99953.44;4920448;28;101532;-76
2022/08/01 08:12:24;;;;;;;14.18;13.27;;;;;;;25.06;51.88;99924.41;4908787;28;98623;-78
2022/08/01 08:14:50;;;;;;;14.40;13.48;;;;;;;26.28;49.81;99953.94;4876294;28;97329;-77
2022/08/01 08:17:15;;;;;;;14.80;13.40;;;;;;;26.32;49.77;99941.00;4889790;28;97938;-79
2022/08/01 08:19:40;;;;;;;14.55;13.35;;;;;;;26.52;49.22;99945.13;4901217;28;101370;-79
2022/08/01 08:22:07;;;;;;;15.32;14.07;;;;;;;26.29;49.53;99952.91;4900329;28;100477;-79
2022/08/01 08:24:33;;;;;;;14.25;13.20;;;;;;;26.52;49.15;99952.34;4898908;28;96844;-79
2022/08/01 08:27:01;;;;;;;14.85;13.55;;;;;;;26.29;49.92;99957.47;4899895;28;96936;-79
2022/08/01 08:29:29;;;;;;;15.00;14.00;;;;;;;26.94;48.96;99970.28;4914375;28;97510;-79
2022/08/01 08:31:55;;;;;;;15.57;14.40;;;;;;;27.08;48.28;99964.22;4900541;28;101176;-79
2022/08/01 08:34:21;;;;;;;14.52;13.57;;;;;;;27.09;48.64;99963.22;4882525;28;97144;-79
2022/08/01 08:36:47;;;;;;;14.95;13.88;;;;;;;26.64;50.53;99968.03;4883232;28;96855;-79
2022/08/01 08:39:12;;;;;;;18.55;14.00;;;;;;;26.17;51.26;99975.75;4882286;28;101847;-79
2022/08/01 08:41:38;;;;;;;15.73;14.05;;;;;;;25.88;51.98;99974.25;4896109;28;100985;-79
2022/08/01 08:44:07;;;;;;;14.93;13.60;;;;;;;25.60;52.79;99972.69;4898727;28;97221;-79
2022/08/01 08:46:33;;;;;;;14.80;13.77;;;;;;;25.45;53.06;99975.09;4914634;28;97108;-79
2022/08/01 08:49:01;;;;;;;14.88;13.60;;;;;;;25.22;52.93;99970.25;4901653;28;101134;-79
2022/08/01 08:51:27;;;;;;;15.20;14.07;;;;;;;25.19;53.46;99981.28;4912600;28;97486;-79
2022/08/01 08:53:56;;;;;;;16.83;15.27;;;;;;;24.97;53.58;99961.09;4914329;28;97573;-79
2022/08/01 08:56:24;;;;;;;14.82;13.80;;;;;;;24.95;54.25;99981.03;4883002;28;96875;-79
2022/08/01 08:58:50;;;;;;;16.00;15.00;;;;;;;24.91;54.05;99988.53;4882420;28;101511;-79
2022/08/01 09:01:17;;;;;;;14.75;13.75;;;;;;;24.87;54.39;99983.63;4897002;28;101655;-80
2022/08/01 09:03:44;;;;;;;14.55;13.55;;;;;;;24.72;54.22;99970.72;4879333;28;97327;-75
2022/08/01 09:06:10;;;;;;;16.10;14.60;;;;;;;24.69;54.09;99988.97;4898485;28;97032;-79
2022/08/01 09:08:36;;;;;;;14.57;13.43;;;;;;;24.66;53.79;99989.28;4914328;28;100960;-78
2022/08/01 09:11:01;;;;;;;14.88;13.80;;;;;;;25.28;52.77;99995.63;4913648;28;97084;-78
2022/08/01 09:13:27;;;;;;;14.57;13.68;;;;;;;25.72;51.99;99993.78;4896831;28;97380;-78
2022/08/01 09:15:54;;;;;;;14.48;13.30;;;;;;;25.89;51.45;99989.38;4910558;28;96967;-78
2022/08/01 09:18:33;;;;;;;15.18;14.07;;;;;;;25.83;51.17;99990.03;4912147;28;100051;-78
2022/08/01 09:21:11;;;;;;;15.45;14.32;;;;;;;25.86;51.37;99996.91;4914228;28;101518;-78
2022/08/01 09:23:39;;;;;;;15.43;14.30;;;;;;;26.10;50.92;99997.06;4909509;28;97327;-78
2022/08/01 09:26:06;;;;;;;15.23;13.73;;;;;;;26.65;49.70;99995.81;4892164;28;96912;-78
2022/08/01 09:28:32;;;;;;;14.50;13.50;;;;;;;27.16;48.15;99990.34;4897346;28;98203;-78
2022/08/01 09:30:57;;;;;;;16.20;14.90;;;;;;;27.36;48.08;99993.56;4899085;28;98263;-78
2022/08/01 09:33:23;;;;;;;16.02;14.77;;;;;;;27.29;48.36;99966.47;4896295;28;96911;-79
2022/08/01 09:35:56;;;;;;;14.65;13.57;;;;;;;28.08;47.30;99981.00;4897602;28;96961;-79
2022/08/01 09:38:26;;;;;;;15.63;13.85;;;;;;;28.86;45.44;99965.81;4878745;28;101639;-79
2022/08/01 09:40:57;;;;;;;15.50;14.48;;;;;;;29.45;44.71;99954.38;4894646;28;101443;-79
2022/08/01 09:43:23;;;;;;;;;;;;;;;30.04;44.15;99973.38;4919729;28;97237;-79
2022/08/01 09:45:49;;;;;;;14.20;13.25;;;;;;;30.45;43.73;99971.03;4896386;28;96944;-78
2022/08/01 09:48:17;;;;;;;15.63;14.43;;;;;;;30.14;43.94;99962.28;4895198;28;97612;-79
2022/08/01 09:50:45;;;;;;;14.63;13.52;;;;;;;29.70;44.18;99969.38;4911165;28;97947;-78
2022/08/01 09:53:11;;;;;;;14.90;13.80;;;;;;;29.32;44.60;99972.06;4903828;28;97431;-78
2022/08/01 09:55:38;;;;;;;14.70;13.52;;;;;;;29.00;44.76;99972.28;4880171;28;98374;-77
2022/08/01 09:58:04;;;;;;;15.48;14.18;;;;;;;29.09;45.06;99969.38;4895164;28;101222;-78
2022/08/01 10:00:31;;;;;;;15.15;13.85;;;;;;;28.91;45.50;99949.88;4895866;28;97524;-78
2022/08/01 10:02:58;;;;;;;15.20;13.82;;;;;;;28.97;45.11;99968.06;4896438;28;97073;-78
2022/08/01 10:05:34;;;;;;;14.70;13.80;;;;;;;28.91;44.39;99967.94;4907091;28;97423;-78
2022/08/01 10:08:03;;;;;;;14.38;13.18;;;;;;;28.77;45.07;99961.44;4892255;28;101342;-78
2022/08/01 10:10:29;;;;;;;14.50;13.60;;;;;;;28.89;45.16;99949.25;4895572;28;101199;-78
2022/08/01 10:12:56;;;;;;;14.25;13.35;;;;;;;29.06;44.85;99950.84;4895972;28;97499;-80
2022/08/01 10:15:23;;;;;;;17.95;13.25;;;;;;;29.01;45.14;99965.88;4898131;28;97067;-81
2022/08/01 10:17:53;;;;;;;13.82;13.02;;;;;;;29.56;44.21;99959.34;4876027;28;100664;-81
2022/08/01 10:20:21;;;;;;;14.93;13.93;;;;;;;29.44;45.06;99958.94;4891114;28;99869;-81
2022/08/01 10:22:46;;;;;;;13.75;12.95;;;;;;;29.25;44.88;99954.03;4894564;28;97362;-80
2022/08/01 10:25:16;;;;;;;13.93;13.02;;;;;;;29.07;45.21;99948.97;4911848;28;97479;-80
2022/08/01 10:27:45;;;;;;;13.63;12.83;;;;;;;28.76;45.33;99928.22;4893623;28;101125;-80
2022/08/01 10:30:11;;;;;;;14.90;13.75;;;;;;;28.66;45.90;99938.44;4903280;28;97436;-81
2022/08/01 10:32:37;;;;;;;13.88;12.85;;;;;;;28.41;46.37;99952.03;4896703;28;96847;-80
2022/08/01 10:35:06;;;;;;;12.73;12.02;;;;;;;28.31;46.26;99940.59;4921660;28;97475;-80
2022/08/01 10:37:34;;;;;;;13.50;12.50;;;;;;;28.62;46.32;99956.84;4891526;28;97748;-80
2022/08/01 10:40:00;;;;;;;13.50;12.65;;;;;;;28.64;45.41;99952.09;4873419;28;101208;-80
2022/08/01 10:42:27;;;;;;;13.98;12.88;;;;;;;28.62;46.09;99955.97;4912189;28;96797;-80
2022/08/01 10:44:53;;;;;;;14.27;13.27;;;;;;;28.55;46.41;99941.53;4894428;28;98578;-80
2022/08/01 10:47:24;;;;;;;15.43;13.90;;;;;;;28.53;46.32;99952.50;4881308;28;100965;-78
2022/08/01 10:50:11;;;;;;;14.23;13.32;;;;;;;28.36;46.60;99937.38;4876218;28;101222;-80
2022/08/01 10:52:37;;;;;;;13.90;12.98;;;;;;;28.37;46.81;99944.47;4894851;28;96794;-80
2022/08/01 10:55:03;;;;;;;14.68;13.63;;;;;;;28.25;47.04;99952.13;4895777;28;97269;-80
2022/08/01 10:57:46;;;;;;;14.57;13.48;;;;;;;28.24;46.97;99949.56;4910525;28;97516;-80
2022/08/01 11:00:19;;;;;;;14.45;13.38;;;;;;;28.10;47.03;99946.63;4888199;28;97478;-80
2022/08/01 11:03:03;;;;;;;15.35;14.25;;;;;;;28.05;46.96;99956.25;4875746;28;97677;-80
2022/08/01 11:05:34;;;;;;;14.90;13.90;;;;;;;28.17;46.98;99952.97;4870251;28;97533;-81
2022/08/01 11:08:06;;;;;;;14.63;13.65;;;;;;;28.26;47.23;99952.94;4908210;28;100780;-78
2022/08/01 11:10:45;;;;;;;14.50;13.57;;;;;;;28.15;47.02;99952.31;4909917;28;98083;-80
2022/08/01 11:13:11;;;;;;;13.90;12.95;;;;;;;27.98;47.14;99950.69;4907646;28;98568;-78
2022/08/01 11:15:40;;;;;;;14.60;13.57;;;;;;;27.79;47.56;99943.84;4893896;28;96850;-79